Time;durP1;ratioP1;P1;durP2;ratioP2;P2;SDS_P1;SDS_P2;PMS_P1;PMS_P2;Temp;Humidity;BMP_temperature;BMP_pressure;BME280_temperature;BME280_humidity;BME280_pressure;Samples;Min_cycle;Max_cycle;Signal;HPM_P1;HPM_P2
2023/09/27 00:00:55;;;;;;;31.63;18.33;;;;;;;;;;5033824;28;20619;-66
2023/09/27 00:03:21;;;;;;;35.75;17.40;;;;;;;;;;5026670;28;20025;-66
2023/09/27 00:05:46;;;;;;;35.10;17.65;;;;;;;;;;5028163;28;20021;-67
2023/09/27 00:08:11;;;;;;;39.35;16.90;;;;;;;;;;5029646;28;20117;-68
2023/09/27 00:10:37;;;;;;;36.25;19.00;;;;;;;;;;5028836;28;20452;-65
2023/09/27 00:13:02;;;;;;;34.53;16.83;;;;;;;;;;5029444;28;20676;-67
2023/09/27 00:15:28;;;;;;;33.08;16.52;;;;;;;;;;5028965;28;20021;-67
2023/09/27 00:17:54;;;;;;;36.63;17.83;;;;;;;;;;5028966;28;20124;-65
2023/09/27 00:20:20;;;;;;;36.88;17.23;;;;;;;;;;5026544;28;20450;-68
2023/09/27 00:22:45;;;;;;;36.70;16.42;;;;;;;;;;5027001;28;20469;-67
2023/09/27 00:25:11;;;;;;;42.08;17.23;;;;;;;;;;5025633;28;20074;-65
2023/09/27 00:27:38;;;;;;;32.60;15.90;;;;;;;;;;5027769;28;20022;-64
2023/09/27 00:30:04;;;;;;;34.60;16.87;;;;;;;;;;5028499;28;20457;-65
2023/09/27 00:32:30;;;;;;;25.67;15.00;;;;;;;;;;5029854;28;20021;-67
2023/09/27 00:34:55;;;;;;;27.33;15.70;;;;;;;;;;5028376;28;20021;-65
2023/09/27 00:37:20;;;;;;;23.42;14.95;;;;;;;;;;5028565;28;20457;-66
2023/09/27 00:39:46;;;;;;;31.92;16.10;;;;;;;;;;5021399;28;20102;-66
2023/09/27 00:42:11;;;;;;;28.25;15.40;;;;;;;;;;5028724;28;20094;-66
2023/09/27 00:44:37;;;;;;;27.10;14.30;;;;;;;;;;5026056;28;20385;-66
2023/09/27 00:47:03;;;;;;;30.98;15.52;;;;;;;;;;5028303;28;20411;-66
2023/09/27 00:49:28;;;;;;;30.13;15.50;;;;;;;;;;5028175;28;20014;-66
2023/09/27 00:51:54;;;;;;;31.77;15.68;;;;;;;;;;5021240;28;20022;-66
2023/09/27 00:54:19;;;;;;;31.02;15.88;;;;;;;;;;5027934;28;20379;-67
2023/09/27 00:56:47;;;;;;;26.40;15.35;;;;;;;;;;5020915;28;20034;-64
2023/09/27 00:59:13;;;;;;;30.92;14.55;;;;;;;;;;5024594;28;20366;-66
2023/09/27 01:01:38;;;;;;;26.17;14.25;;;;;;;;;;5024407;28;20113;-66
2023/09/27 01:04:04;;;;;;;23.38;13.82;;;;;;;;;;5025978;28;20049;-67
2023/09/27 01:06:30;;;;;;;24.23;13.55;;;;;;;;;;5023429;28;20567;-67
2023/09/27 01:08:55;;;;;;;26.10;14.15;;;;;;;;;;5022078;28;20120;-65
2023/09/27 01:11:21;;;;;;;26.38;13.85;;;;;;;;;;5022906;28;20108;-68
2023/09/27 01:13:46;;;;;;;27.00;13.23;;;;;;;;;;5026737;28;20215;-68
2023/09/27 01:16:11;;;;;;;31.05;14.20;;;;;;;;;;5021041;28;20439;-66
2023/09/27 01:18:37;;;;;;;25.83;13.38;;;;;;;;;;5028127;28;20029;-66
2023/09/27 01:21:02;;;;;;;22.52;13.00;;;;;;;;;;5023548;28;20025;-65
2023/09/27 01:23:28;;;;;;;32.22;15.40;;;;;;;;;;5027761;28;20094;-66
2023/09/27 01:25:59;;;;;;;24.15;13.05;;;;;;;;;;5021402;28;20103;-66
2023/09/27 01:28:26;;;;;;;21.20;13.55;;;;;;;;;;5023826;28;20016;-64
2023/09/27 01:30:51;;;;;;;26.23;15.02;;;;;;;;;;5020418;28;20040;-66
2023/09/27 01:33:16;;;;;;;24.63;12.93;;;;;;;;;;5028571;28;20025;-66
2023/09/27 01:35:42;;;;;;;22.77;12.70;;;;;;;;;;5026997;28;20113;-65
2023/09/27 01:38:08;;;;;;;28.88;14.68;;;;;;;;;;5024430;28;20048;-67
2023/09/27 01:40:37;;;;;;;25.50;13.85;;;;;;;;;;5027510;28;20079;-68
2023/09/27 01:43:03;;;;;;;22.48;12.90;;;;;;;;;;5020736;28;20110;-65
2023/09/27 01:45:29;;;;;;;25.88;13.68;;;;;;;;;;5022860;28;20018;-67
2023/09/27 01:47:54;;;;;;;24.75;13.77;;;;;;;;;;5022244;28;20392;-68
2023/09/27 01:50:21;;;;;;;32.67;14.43;;;;;;;;;;5028251;28;20422;-67
2023/09/27 01:52:47;;;;;;;21.88;14.35;;;;;;;;;;5026910;28;20476;-68
2023/09/27 01:55:12;;;;;;;29.60;14.50;;;;;;;;;;5022721;28;20025;-65
2023/09/27 01:57:37;;;;;;;29.38;14.48;;;;;;;;;;5027274;28;20108;-68
2023/09/27 02:00:08;;;;;;;25.67;14.82;;;;;;;;;;5021483;28;20121;-66
2023/09/27 02:02:34;;;;;;;30.90;14.60;;;;;;;;;;5024441;28;20026;-68
2023/09/27 02:04:59;;;;;;;32.38;14.43;;;;;;;;;;5026433;28;20018;-69
2023/09/27 02:07:24;;;;;;;30.30;13.43;;;;;;;;;;5026390;28;20041;-68
2023/09/27 02:09:49;;;;;;;30.08;14.82;;;;;;;;;;5019675;28;20010;-68
2023/09/27 02:12:15;;;;;;;24.65;14.50;;;;;;;;;;5024814;28;20025;-64
2023/09/27 02:14:40;;;;;;;27.20;13.80;;;;;;;;;;5023200;28;20030;-68
2023/09/27 02:17:05;;;;;;;23.30;14.57;;;;;;;;;;5023378;28;20184;-66
2023/09/27 02:19:30;;;;;;;25.15;13.93;;;;;;;;;;5025710;28;20098;-66
2023/09/27 02:21:55;;;;;;;31.65;14.82;;;;;;;;;;5027194;28;20026;-66
2023/09/27 02:24:21;;;;;;;26.20;14.23;;;;;;;;;;5024420;28;20109;-64
2023/09/27 02:26:46;;;;;;;28.98;13.70;;;;;;;;;;5026796;28;20017;-67
2023/09/27 02:29:12;;;;;;;22.67;14.48;;;;;;;;;;5022515;28;20071;-67
2023/09/27 02:31:38;;;;;;;31.23;14.07;;;;;;;;;;5021817;28;20105;-67
2023/09/27 02:34:03;;;;;;;22.50;12.70;;;;;;;;;;5022549;28;20168;-68
2023/09/27 02:36:28;;;;;;;25.00;12.90;;;;;;;;;;5017832;28;20033;-68
2023/09/27 02:38:53;;;;;;;26.27;14.20;;;;;;;;;;5020387;28;20072;-64
2023/09/27 02:41:19;;;;;;;28.45;14.43;;;;;;;;;;5025845;28;20450;-66
2023/09/27 02:43:44;;;;;;;31.13;15.02;;;;;;;;;;5024299;28;20024;-68
2023/09/27 02:46:10;;;;;;;25.73;14.55;;;;;;;;;;5026470;28;20565;-67
2023/09/27 02:48:35;;;;;;;21.52;13.63;;;;;;;;;;5009044;28;20455;-67
2023/09/27 02:51:00;;;;;;;31.90;15.68;;;;;;;;;;5023711;28;20025;-65
2023/09/27 02:53:26;;;;;;;31.63;14.55;;;;;;;;;;5026861;28;20109;-66
2023/09/27 02:55:51;;;;;;;31.13;14.88;;;;;;;;;;5025785;28;20448;-67
2023/09/27 02:58:16;;;;;;;29.08;14.80;;;;;;;;;;5026553;28;20411;-67
2023/09/27 03:00:42;;;;;;;31.02;13.73;;;;;;;;;;5025575;28;20392;-67
2023/09/27 03:03:08;;;;;;;27.73;13.48;;;;;;;;;;5016708;28;20064;-67
2023/09/27 03:05:35;;;;;;;24.95;13.85;;;;;;;;;;5007887;28;20021;-67
2023/09/27 03:08:00;;;;;;;36.70;14.02;;;;;;;;;;5026599;28;20044;-63
2023/09/27 03:10:25;;;;;;;33.45;14.85;;;;;;;;;;5026144;28;20432;-67
2023/09/27 03:12:51;;;;;;;38.60;14.98;;;;;;;;;;5020176;28;20018;-66
2023/09/27 03:15:17;;;;;;;27.00;14.63;;;;;;;;;;5025819;28;20029;-66
2023/09/27 03:17:42;;;;;;;29.75;12.77;;;;;;;;;;5019838;28;20029;-64
2023/09/27 03:20:18;;;;;;;34.28;15.27;;;;;;;;;;5024165;28;20026;-67
2023/09/27 03:22:45;;;;;;;32.30;16.25;;;;;;;;;;5026349;28;20338;-67
2023/09/27 03:25:10;;;;;;;35.88;15.23;;;;;;;;;;5024324;28;20017;-68
2023/09/27 03:27:36;;;;;;;37.72;14.65;;;;;;;;;;5025571;28;20010;-66
2023/09/27 03:30:01;;;;;;;28.65;15.93;;;;;;;;;;5019328;28;20017;-64
2023/09/27 03:32:26;;;;;;;33.33;15.35;;;;;;;;;;5025497;28;20029;-66
2023/09/27 03:34:52;;;;;;;40.50;15.95;;;;;;;;;;5022092;28;20021;-65
2023/09/27 03:37:17;;;;;;;39.55;14.95;;;;;;;;;;5020840;28;20032;-68
2023/09/27 03:39:42;;;;;;;33.85;14.65;;;;;;;;;;5022463;28;20010;-68
2023/09/27 03:42:08;;;;;;;34.55;17.02;;;;;;;;;;5026141;28;20021;-67
2023/09/27 03:44:33;;;;;;;33.28;18.17;;;;;;;;;;4991730;28;20083;-68
2023/09/27 03:46:58;;;;;;;41.22;17.35;;;;;;;;;;5024008;28;20026;-66
2023/09/27 03:49:24;;;;;;;34.00;17.25;;;;;;;;;;5010124;28;20259;-66
2023/09/27 03:51:49;;;;;;;34.08;16.67;;;;;;;;;;5020860;28;20369;-63
2023/09/27 03:54:14;;;;;;;38.83;17.02;;;;;;;;;;5027231;28;20116;-64
2023/09/27 03:56:39;;;;;;;30.75;17.20;;;;;;;;;;5018734;28;20592;-63
2023/09/27 03:59:05;;;;;;;37.55;16.98;;;;;;;;;;5026193;28;20044;-67
2023/09/27 04:01:30;;;;;;;39.00;17.00;;;;;;;;;;5024957;28;20488;-66
2023/09/27 04:03:57;;;;;;;34.17;17.85;;;;;;;;;;5025454;28;20091;-66
2023/09/27 04:06:23;;;;;;;32.92;19.10;;;;;;;;;;5021945;28;20078;-68
2023/09/27 04:08:48;;;;;;;45.85;19.23;;;;;;;;;;5023634;28;20392;-65
2023/09/27 04:11:14;;;;;;;39.30;20.60;;;;;;;;;;5019707;28;20037;-67
2023/09/27 04:13:39;;;;;;;32.17;17.00;;;;;;;;;;5023181;28;20038;-65
2023/09/27 04:16:05;;;;;;;29.15;16.10;;;;;;;;;;5025542;28;20107;-66
2023/09/27 04:18:30;;;;;;;35.33;16.63;;;;;;;;;;5022331;28;20100;-66
2023/09/27 04:21:03;;;;;;;31.85;16.05;;;;;;;;;;5028440;28;20025;-68
2023/09/27 04:23:29;;;;;;;30.58;16.58;;;;;;;;;;5029509;28;20378;-63
2023/09/27 04:25:54;;;;;;;30.35;16.38;;;;;;;;;;5029334;28;20025;-66
2023/09/27 04:28:19;;;;;;;31.15;16.27;;;;;;;;;;5027893;28;20079;-64
2023/09/27 04:30:44;;;;;;;33.95;17.60;;;;;;;;;;5027415;28;20528;-67
2023/09/27 04:33:09;;;;;;;30.35;16.15;;;;;;;;;;5029977;28;20532;-67
2023/09/27 04:35:35;;;;;;;33.05;15.77;;;;;;;;;;5028825;28;20026;-67
2023/09/27 04:38:00;;;;;;;43.17;16.73;;;;;;;;;;5025955;28;20033;-68
2023/09/27 04:40:25;;;;;;;37.20;16.70;;;;;;;;;;5014873;28;20109;-68
2023/09/27 04:42:50;;;;;;;34.85;17.20;;;;;;;;;;5027029;28;20024;-68
2023/09/27 04:45:16;;;;;;;34.50;16.00;;;;;;;;;;5024572;28;20350;-68
2023/09/27 04:47:41;;;;;;;33.15;16.27;;;;;;;;;;5020021;28;20025;-67
2023/09/27 04:50:10;;;;;;;42.63;15.88;;;;;;;;;;5024002;28;20041;-67
2023/09/27 04:52:36;;;;;;;29.75;15.43;;;;;;;;;;5022043;28;20036;-68
2023/09/27 04:55:02;;;;;;;33.80;15.98;;;;;;;;;;5024691;28;20017;-67
2023/09/27 04:57:27;;;;;;;39.15;16.25;;;;;;;;;;5021452;28;20353;-68
2023/09/27 04:59:52;;;;;;;42.47;17.55;;;;;;;;;;5027356;28;20068;-68
2023/09/27 05:02:18;;;;;;;36.45;17.83;;;;;;;;;;5027151;28;20587;-65
2023/09/27 05:04:43;;;;;;;39.05;18.52;;;;;;;;;;5025603;28;20028;-68
2023/09/27 05:07:09;;;;;;;36.60;18.33;;;;;;;;;;5028201;28;20041;-66
2023/09/27 05:09:34;;;;;;;40.10;20.77;;;;;;;;;;5028686;28;20075;-68
2023/09/27 05:11:59;;;;;;;42.88;19.73;;;;;;;;;;5027082;28;20412;-68
2023/09/27 05:14:25;;;;;;;38.55;18.20;;;;;;;;;;5027781;28;20112;-67
2023/09/27 05:16:50;;;;;;;31.05;17.58;;;;;;;;;;5025925;28;20551;-66
2023/09/27 05:19:15;;;;;;;50.50;17.90;;;;;;;;;;5020849;28;20029;-68
2023/09/27 05:21:40;;;;;;;34.10;17.83;;;;;;;;;;5024713;28;20022;-69
2023/09/27 05:24:06;;;;;;;34.03;17.65;;;;;;;;;;5033447;28;20496;-68
2023/09/27 05:26:31;;;;;;;31.73;18.17;;;;;;;;;;5027266;28;20025;-68
2023/09/27 05:28:56;;;;;;;38.75;21.23;;;;;;;;;;5019517;28;20115;-67
2023/09/27 05:31:22;;;;;;;42.65;20.92;;;;;;;;;;5027177;28;20040;-69
2023/09/27 05:33:47;;;;;;;44.45;19.90;;;;;;;;;;5025039;28;20105;-68
2023/09/27 05:36:13;;;;;;;43.05;21.50;;;;;;;;;;5028366;28;20511;-69
2023/09/27 05:38:38;;;;;;;45.50;21.23;;;;;;;;;;5026339;28;20105;-70
2023/09/27 05:41:04;;;;;;;36.55;21.00;;;;;;;;;;5020243;28;20037;-68
2023/09/27 05:43:29;;;;;;;43.47;21.25;;;;;;;;;;5028175;28;20033;-67
2023/09/27 05:45:56;;;;;;;40.35;21.80;;;;;;;;;;5027031;28;20067;-69
2023/09/27 05:48:22;;;;;;;42.55;21.63;;;;;;;;;;5027792;28;20021;-68
2023/09/27 05:50:47;;;;;;;51.53;22.30;;;;;;;;;;5026838;28;20104;-68
2023/09/27 05:53:12;;;;;;;45.20;22.25;;;;;;;;;;5022722;28;20452;-70
2023/09/27 05:55:38;;;;;;;48.75;21.05;;;;;;;;;;5024618;28;20515;-68
2023/09/27 05:58:04;;;;;;;39.53;20.00;;;;;;;;;;5027788;28;20393;-69
2023/09/27 06:00:37;;;;;;;39.05;19.45;;;;;;;;;;5026776;28;20033;-68
2023/09/27 06:03:04;;;;;;;42.00;19.73;;;;;;;;;;5026446;28;20052;-69
2023/09/27 06:05:29;;;;;;;42.08;20.52;;;;;;;;;;5023469;28;20021;-66
2023/09/27 06:07:54;;;;;;;44.75;22.35;;;;;;;;;;5027426;28;20044;-69
2023/09/27 06:10:19;;;;;;;37.33;20.73;;;;;;;;;;5022868;28;20424;-67
2023/09/27 06:12:45;;;;;;;43.53;21.13;;;;;;;;;;5026977;28;20025;-71
2023/09/27 06:15:12;;;;;;;37.53;20.55;;;;;;;;;;5025403;28;20017;-70
2023/09/27 06:17:37;;;;;;;38.47;21.20;;;;;;;;;;5023080;28;20087;-67
2023/09/27 06:20:05;;;;;;;37.60;20.15;;;;;;;;;;5024783;28;20108;-67
2023/09/27 06:22:31;;;;;;;44.00;19.40;;;;;;;;;;5009774;28;20032;-68
2023/09/27 06:24:56;;;;;;;34.40;18.38;;;;;;;;;;5025406;28;20563;-64
2023/09/27 06:27:22;;;;;;;39.65;20.77;;;;;;;;;;5011772;28;20452;-67
2023/09/27 06:29:47;;;;;;;35.30;19.70;;;;;;;;;;5026709;28;20025;-67
2023/09/27 06:32:12;;;;;;;49.50;20.45;;;;;;;;;;5028704;28;20021;-67
2023/09/27 06:34:38;;;;;;;45.22;20.25;;;;;;;;;;5027017;28;20029;-67
2023/09/27 06:37:03;;;;;;;42.58;18.92;;;;;;;;;;5019244;28;20021;-68
2023/09/27 06:39:28;;;;;;;47.65;20.95;;;;;;;;;;5025260;28;20773;-66
2023/09/27 06:41:55;;;;;;;38.85;19.83;;;;;;;;;;5025359;28;20055;-68
2023/09/27 06:44:20;;;;;;;36.28;18.63;;;;;;;;;;5025810;28;20107;-68
2023/09/27 06:46:46;;;;;;;34.40;18.67;;;;;;;;;;5027476;28;20623;-66
2023/09/27 06:49:15;;;;;;;36.17;20.13;;;;;;;;;;5027300;28;20025;-66
2023/09/27 06:51:43;;;;;;;37.70;19.20;;;;;;;;;;5008633;28;20037;-66
2023/09/27 06:54:08;;;;;;;34.85;19.35;;;;;;;;;;5026254;28;20021;-69
2023/09/27 06:56:33;;;;;;;30.80;18.13;;;;;;;;;;5024739;28;20103;-69
2023/09/27 06:58:59;;;;;;;29.45;17.05;;;;;;;;;;5030663;28;20094;-69
2023/09/27 07:01:24;;;;;;;33.95;18.45;;;;;;;;;;5030186;28;20148;-70
2023/09/27 07:03:50;;;;;;;33.35;17.45;;;;;;;;;;5025590;28;20119;-69
2023/09/27 07:06:15;;;;;;;35.60;18.90;;;;;;;;;;5030991;28;20073;-67
2023/09/27 07:08:40;;;;;;;31.00;17.75;;;;;;;;;;5031005;28;20468;-69
2023/09/27 07:11:07;;;;;;;34.00;17.40;;;;;;;;;;5031500;28;20018;-67
2023/09/27 07:13:32;;;;;;;33.72;17.33;;;;;;;;;;5023558;28;20109;-66
2023/09/27 07:15:59;;;;;;;36.15;18.83;;;;;;;;;;5030115;28;20200;-67
2023/09/27 07:18:24;;;;;;;39.85;17.48;;;;;;;;;;5028621;28;20037;-69
2023/09/27 07:20:50;;;;;;;33.10;17.45;;;;;;;;;;5022959;28;20084;-69
2023/09/27 07:23:15;;;;;;;35.85;18.73;;;;;;;;;;5030799;28;20099;-68
2023/09/27 07:25:41;;;;;;;40.97;18.73;;;;;;;;;;5019977;28;20478;-67
2023/09/27 07:28:07;;;;;;;29.48;17.42;;;;;;;;;;5029078;28;20020;-68
2023/09/27 07:30:35;;;;;;;28.63;17.30;;;;;;;;;;5026041;28;20021;-68
2023/09/27 07:33:03;;;;;;;30.90;17.57;;;;;;;;;;5028277;28;20028;-67
2023/09/27 07:35:32;;;;;;;35.00;18.58;;;;;;;;;;5024118;28;20033;-66
2023/09/27 07:37:58;;;;;;;31.30;15.93;;;;;;;;;;5026485;28;20041;-67
2023/09/27 07:40:23;;;;;;;29.95;16.88;;;;;;;;;;5030812;28;20025;-69
2023/09/27 07:42:48;;;;;;;32.47;17.20;;;;;;;;;;5029941;28;20018;-66
2023/09/27 07:45:28;;;;;;;28.00;17.08;;;;;;;;;;5026412;28;20026;-68
2023/09/27 07:47:54;;;;;;;29.48;17.55;;;;;;;;;;5027639;28;20037;-68
2023/09/27 07:50:19;;;;;;;27.95;16.70;;;;;;;;;;5030103;28;20725;-69
2023/09/27 07:52:44;;;;;;;26.20;15.98;;;;;;;;;;5029819;28;20435;-70
2023/09/27 07:55:10;;;;;;;30.40;17.52;;;;;;;;;;5030031;28;20075;-67
2023/09/27 07:57:36;;;;;;;29.45;15.18;;;;;;;;;;5028790;28;20108;-69
2023/09/27 08:00:08;;;;;;;24.58;14.77;;;;;;;;;;5022581;28;20017;-70
2023/09/27 08:02:33;;;;;;;27.17;16.05;;;;;;;;;;5029689;28;20033;-70
2023/09/27 08:04:59;;;;;;;28.10;14.45;;;;;;;;;;5021073;28;20029;-70
2023/09/27 08:07:24;;;;;;;31.00;14.68;;;;;;;;;;5026756;28;20120;-68
2023/09/27 08:09:49;;;;;;;32.40;15.95;;;;;;;;;;5028814;28;20142;-68
2023/09/27 08:12:14;;;;;;;24.98;14.68;;;;;;;;;;5025086;28;20422;-68
2023/09/27 08:14:40;;;;;;;28.80;16.15;;;;;;;;;;5026063;28;20469;-67
2023/09/27 08:17:05;;;;;;;29.70;15.85;;;;;;;;;;5023524;28;20044;-68
2023/09/27 08:19:30;;;;;;;34.17;16.42;;;;;;;;;;5025585;28;20021;-66
2023/09/27 08:21:56;;;;;;;33.88;16.08;;;;;;;;;;5031093;28;20044;-69
2023/09/27 08:24:22;;;;;;;30.92;15.80;;;;;;;;;;5023272;28;20016;-68
2023/09/27 08:26:47;;;;;;;27.20;15.00;;;;;;;;;;5029191;28;20079;-67
2023/09/27 08:29:13;;;;;;;27.80;14.48;;;;;;;;;;5028781;28;20021;-68
2023/09/27 08:31:38;;;;;;;25.60;13.30;;;;;;;;;;5028322;28;20025;-69
2023/09/27 08:34:04;;;;;;;29.27;15.30;;;;;;;;;;5029117;28;20074;-69
2023/09/27 08:36:30;;;;;;;24.63;13.93;;;;;;;;;;5024018;28;20059;-68
2023/09/27 08:38:55;;;;;;;21.88;13.32;;;;;;;;;;5010005;28;20152;-68
2023/09/27 08:41:22;;;;;;;27.27;13.75;;;;;;;;;;5029129;28;20100;-70
2023/09/27 08:43:49;;;;;;;34.72;14.48;;;;;;;;;;5029470;28;20037;-67
2023/09/27 08:46:14;;;;;;;24.67;14.45;;;;;;;;;;5025144;28;20048;-69
2023/09/27 08:48:39;;;;;;;25.73;13.90;;;;;;;;;;5029856;28;20013;-66
2023/09/27 08:51:06;;;;;;;27.75;14.38;;;;;;;;;;5028491;28;20049;-69
2023/09/27 08:53:32;;;;;;;22.60;13.23;;;;;;;;;;5026752;28;20021;-68
2023/09/27 08:55:58;;;;;;;35.45;14.73;;;;;;;;;;5028669;28;20016;-66
2023/09/27 08:58:24;;;;;;;24.02;13.25;;;;;;;;;;5028994;28;20017;-68
2023/09/27 09:00:50;;;;;;;23.10;15.30;;;;;;;;;;5008988;28;20017;-68
2023/09/27 09:03:16;;;;;;;23.98;13.07;;;;;;;;;;5031732;28;20529;-67
2023/09/27 09:05:42;;;;;;;26.83;12.88;;;;;;;;;;5028442;28;20132;-69
2023/09/27 09:08:07;;;;;;;22.15;12.05;;;;;;;;;;5028895;28;20030;-66
2023/09/27 09:10:33;;;;;;;23.70;12.75;;;;;;;;;;5028507;28;20100;-69
2023/09/27 09:13:03;;;;;;;34.63;14.20;;;;;;;;;;5028422;28;20117;-69
2023/09/27 09:15:41;;;;;;;21.77;11.77;;;;;;;;;;5021059;28;20482;-68
2023/09/27 09:18:31;;;;;;;22.33;11.38;;;;;;;;;;5021726;28;20021;-69
2023/09/27 09:21:08;;;;;;;21.65;11.50;;;;;;;;;;5019984;28;20201;-68
2023/09/27 09:23:34;;;;;;;21.17;12.90;;;;;;;;;;5025764;28;20022;-66
2023/09/27 09:26:09;;;;;;;26.33;12.93;;;;;;;;;;5027017;28;20021;-68
2023/09/27 09:28:50;;;;;;;30.90;12.40;;;;;;;;;;5023086;28;20018;-67
2023/09/27 09:31:22;;;;;;;24.42;11.77;;;;;;;;;;5022194;28;20044;-68
2023/09/27 09:34:01;;;;;;;20.08;10.35;;;;;;;;;;5029865;28;20469;-68
2023/09/27 09:36:26;;;;;;;;;;;;;;;;;;5025922;28;20020;-68
2023/09/27 09:38:51;;;;;;;19.73;10.75;;;;;;;;;;5026706;28;20000;-68
2023/09/27 09:41:16;;;;;;;24.48;12.63;;;;;;;;;;5024000;28;20057;-68
2023/09/27 09:43:41;;;;;;;22.40;10.57;;;;;;;;;;5023795;28;20049;-68
2023/09/27 09:46:08;;;;;;;23.13;10.63;;;;;;;;;;5025147;28;20021;-69
2023/09/27 09:48:34;;;;;;;25.75;13.30;;;;;;;;;;5024335;28;20029;-66
2023/09/27 09:51:03;;;;;;;24.98;12.57;;;;;;;;;;5028387;28;21211;-67
2023/09/27 09:53:29;;;;;;;23.80;10.60;;;;;;;;;;5027683;28;20444;-67
2023/09/27 09:55:55;;;;;;;24.00;10.73;;;;;;;;;;5019306;28;20086;-68
2023/09/27 09:58:35;;;;;;;22.48;12.15;;;;;;;;;;5023382;28;20075;-66
2023/09/27 10:01:01;;;;;;;19.48;11.32;;;;;;;;;;5020191;28;20036;-67
2023/09/27 10:03:30;;;;;;;16.88;10.07;;;;;;;;;;5027569;28;20009;-69
2023/09/27 10:05:56;;;;;;;24.45;12.63;;;;;;;;;;5026982;28;20037;-70
2023/09/27 10:08:23;;;;;;;20.00;10.60;;;;;;;;;;5010156;28;20060;-67
2023/09/27 10:10:48;;;;;;;18.92;10.10;;;;;;;;;;5022892;28;20032;-69
2023/09/27 10:13:14;;;;;;;18.40;10.95;;;;;;;;;;5019762;28;20013;-66
2023/09/27 10:15:40;;;;;;;19.15;11.02;;;;;;;;;;5023929;28;20021;-69
2023/09/27 10:18:21;;;;;;;21.25;11.90;;;;;;;;;;5009385;28;20022;-68
2023/09/27 10:21:02;;;;;;;22.75;10.90;;;;;;;;;;5024858;28;20035;-67
2023/09/27 10:23:47;;;;;;;22.70;11.20;;;;;;;;;;5026664;28;20401;-65
2023/09/27 10:26:28;;;;;;;20.58;10.45;;;;;;;;;;5010793;28;20018;-69
2023/09/27 10:28:56;;;;;;;18.30;9.57;;;;;;;;;;5019675;28;20470;-69
2023/09/27 10:31:22;;;;;;;19.17;11.43;;;;;;;;;;5029032;28;20020;-68
2023/09/27 10:33:47;;;;;;;21.67;10.57;;;;;;;;;;5033216;28;20021;-68
2023/09/27 10:36:12;;;;;;;17.37;10.47;;;;;;;;;;5031660;28;20064;-67
2023/09/27 10:38:41;;;;;;;20.65;10.35;;;;;;;;;;5031334;28;20728;-69
2023/09/27 10:41:07;;;;;;;17.05;9.93;;;;;;;;;;5026420;28;20029;-69
2023/09/27 10:43:32;;;;;;;27.17;11.27;;;;;;;;;;5030277;28;20056;-67
2023/09/27 10:45:59;;;;;;;24.33;10.63;;;;;;;;;;5029733;28;20018;-69
2023/09/27 10:48:24;;;;;;;20.90;10.27;;;;;;;;;;5030678;28;20009;-66
2023/09/27 10:50:57;;;;;;;18.98;9.43;;;;;;;;;;5025255;28;20013;-66
2023/09/27 10:53:23;;;;;;;19.63;9.77;;;;;;;;;;5027849;28;20028;-67
2023/09/27 10:55:48;;;;;;;18.42;9.05;;;;;;;;;;5023626;28;20021;-68
2023/09/27 10:58:17;;;;;;;21.23;9.95;;;;;;;;;;5026471;28;20029;-67
2023/09/27 11:00:55;;;;;;;16.75;9.32;;;;;;;;;;5023308;28;20148;-69
2023/09/27 11:03:20;;;;;;;;;;;;;;;;;;5031218;28;20045;-68
2023/09/27 11:05:45;;;;;;;18.07;9.70;;;;;;;;;;5042338;22;19982;-71
2023/09/27 11:08:12;;;;;;;15.05;8.88;;;;;;;;;;5032918;28;20338;-70
2023/09/27 11:10:38;;;;;;;20.55;8.75;;;;;;;;;;5030919;28;20036;-68
2023/09/27 11:13:03;;;;;;;22.75;8.90;;;;;;;;;;5024325;28;20014;-69
2023/09/27 11:15:29;;;;;;;22.85;9.77;;;;;;;;;;5031659;28;20060;-71
2023/09/27 11:17:55;;;;;;;18.05;9.18;;;;;;;;;;5031594;28;20017;-71
2023/09/27 11:20:20;;;;;;;24.08;9.88;;;;;;;;;;5027863;28;20048;-71
2023/09/27 11:22:46;;;;;;;16.23;8.40;;;;;;;;;;5030744;28;20048;-72
2023/09/27 11:25:31;;;;;;;17.98;9.50;;;;;;;;;;5031596;28;20048;-68
2023/09/27 11:27:56;;;;;;;18.23;9.65;;;;;;;;;;5027921;28;20392;-71
2023/09/27 11:30:26;;;;;;;15.65;7.85;;;;;;;;;;5032053;28;20092;-70
2023/09/27 11:32:51;;;;;;;20.75;8.50;;;;;;;;;;5033206;28;20363;-70
2023/09/27 11:35:20;;;;;;;20.67;8.80;;;;;;;;;;5031158;28;20075;-71
2023/09/27 11:37:47;;;;;;;17.58;9.70;;;;;;;;;;5029444;28;20315;-71
2023/09/27 11:40:13;;;;;;;14.23;8.10;;;;;;;;;;5029318;28;20095;-71
2023/09/27 11:42:38;;;;;;;16.55;8.65;;;;;;;;;;5021121;28;20018;-70
2023/09/27 11:45:04;;;;;;;17.73;9.07;;;;;;;;;;5030646;28;20429;-71
2023/09/27 11:47:30;;;;;;;19.73;9.05;;;;;;;;;;5025713;28;20242;-70
2023/09/27 11:49:55;;;;;;;25.13;8.18;;;;;;;;;;5029128;28;20071;-69
2023/09/27 11:52:21;;;;;;;19.65;8.70;;;;;;;;;;5024886;28;20389;-70
2023/09/27 11:54:46;;;;;;;21.80;8.73;;;;;;;;;;5030065;28;20014;-69
2023/09/27 11:57:11;;;;;;;14.67;8.13;;;;;;;;;;5029874;28;20286;-70
2023/09/27 11:59:40;;;;;;;13.77;7.90;;;;;;;;;;5027385;28;20730;-71
2023/09/27 12:02:08;;;;;;;17.38;7.93;;;;;;;;;;5027640;28;20317;-70
2023/09/27 12:04:34;;;;;;;18.17;8.90;;;;;;;;;;5031570;28;20178;-71
2023/09/27 12:06:59;;;;;;;18.63;8.00;;;;;;;;;;5030633;28;20076;-73
2023/09/27 12:09:24;;;;;;;21.02;8.07;;;;;;;;;;5007971;28;20063;-71
2023/09/27 12:11:49;;;;;;;15.10;9.47;;;;;;;;;;5028449;28;20049;-69
2023/09/27 12:14:17;;;;;;;20.13;8.10;;;;;;;;;;5010001;28;20346;-70
2023/09/27 12:16:42;;;;;;;14.35;7.35;;;;;;;;;;5029139;28;20018;-71
2023/09/27 12:19:07;;;;;;;24.33;7.65;;;;;;;;;;5027563;28;20026;-71
2023/09/27 12:21:35;;;;;;;18.92;7.63;;;;;;;;;;5026606;28;20017;-69
2023/09/27 12:24:01;;;;;;;16.33;7.10;;;;;;;;;;5038110;28;20044;-70
2023/09/27 12:26:27;;;;;;;17.08;6.70;;;;;;;;;;5026659;28;20083;-70
2023/09/27 12:28:52;;;;;;;15.25;7.47;;;;;;;;;;5023471;28;20415;-71
2023/09/27 12:31:17;;;;;;;19.67;7.10;;;;;;;;;;5030684;28;20017;-71
2023/09/27 12:33:42;;;;;;;18.00;7.97;;;;;;;;;;5020911;28;20662;-70
2023/09/27 12:36:08;;;;;;;20.63;8.02;;;;;;;;;;5024297;28;20251;-69
2023/09/27 12:38:33;;;;;;;12.30;6.80;;;;;;;;;;5030569;28;20040;-71
2023/09/27 12:41:00;;;;;;;20.98;7.28;;;;;;;;;;5030573;28;20048;-69
2023/09/27 12:43:25;;;;;;;18.48;6.70;;;;;;;;;;5024539;28;20018;-69
2023/09/27 12:45:50;;;;;;;19.25;6.57;;;;;;;;;;5027517;28;20397;-69
2023/09/27 12:48:16;;;;;;;16.73;7.55;;;;;;;;;;5027016;28;20464;-69
2023/09/27 12:50:41;;;;;;;18.63;6.87;;;;;;;;;;5024940;28;20064;-72
2023/09/27 12:53:06;;;;;;;18.83;6.90;;;;;;;;;;5030575;28;20251;-70
2023/09/27 12:55:32;;;;;;;16.73;6.85;;;;;;;;;;5029876;28;20014;-70
2023/09/27 12:57:58;;;;;;;15.50;6.80;;;;;;;;;;5023912;28;20392;-71
2023/09/27 13:00:23;;;;;;;17.92;6.00;;;;;;;;;;5030474;28;20026;-70
2023/09/27 13:02:49;;;;;;;15.32;6.18;;;;;;;;;;5029730;28;20453;-66
2023/09/27 13:05:14;;;;;;;19.98;11.45;;;;;;;;;;5029218;28;20488;-69
2023/09/27 13:07:40;;;;;;;13.60;7.00;;;;;;;;;;5026207;28;20025;-71
2023/09/27 13:10:06;;;;;;;16.08;6.55;;;;;;;;;;5026894;28;20021;-72
2023/09/27 13:12:32;;;;;;;18.02;6.53;;;;;;;;;;5021565;28;20048;-72
2023/09/27 13:14:57;;;;;;;11.38;6.15;;;;;;;;;;5020932;28;20061;-73
2023/09/27 13:17:23;;;;;;;12.07;6.75;;;;;;;;;;5008456;28;20018;-70
2023/09/27 13:19:49;;;;;;;13.90;5.90;;;;;;;;;;5027577;28;20087;-66
2023/09/27 13:22:14;;;;;;;16.30;5.95;;;;;;;;;;5030155;28;20045;-69
2023/09/27 13:24:41;;;;;;;20.30;6.65;;;;;;;;;;5027779;28;20647;-71
2023/09/27 13:27:06;;;;;;;33.57;6.83;;;;;;;;;;5026195;28;20025;-70
2023/09/27 13:29:32;;;;;;;17.85;5.97;;;;;;;;;;5027100;28;20407;-74
2023/09/27 13:31:57;;;;;;;31.83;13.85;;;;;;;;;;5031966;28;20017;-69
2023/09/27 13:34:23;;;;;;;15.38;6.25;;;;;;;;;;5025373;28;20021;-71
2023/09/27 13:36:49;;;;;;;21.65;7.15;;;;;;;;;;5027899;28;20090;-70
2023/09/27 13:39:16;;;;;;;12.07;5.55;;;;;;;;;;5029486;28;20054;-71
2023/09/27 13:41:42;;;;;;;15.77;6.03;;;;;;;;;;5029124;28;20018;-71
2023/09/27 13:44:08;;;;;;;20.70;7.05;;;;;;;;;;5025569;28;20029;-69
2023/09/27 13:46:33;;;;;;;21.98;6.05;;;;;;;;;;5027327;28;20025;-71
2023/09/27 13:48:59;;;;;;;21.27;6.00;;;;;;;;;;5023297;28;20573;-72
2023/09/27 13:51:24;;;;;;;26.53;6.10;;;;;;;;;;5026665;28;20021;-70
2023/09/27 13:53:49;;;;;;;10.63;5.70;;;;;;;;;;5029215;28;20258;-71
2023/09/27 13:56:14;;;;;;;17.48;5.50;;;;;;;;;;5024669;28;20050;-72
2023/09/27 13:58:41;;;;;;;22.13;6.50;;;;;;;;;;5029686;28;20682;-69
2023/09/27 14:01:07;;;;;;;17.05;5.93;;;;;;;;;;5020659;28;20033;-70
2023/09/27 14:03:32;;;;;;;13.10;5.53;;;;;;;;;;5011046;28;20029;-73
2023/09/27 14:05:57;;;;;;;12.23;5.65;;;;;;;;;;5020744;28;20026;-68
2023/09/27 14:08:25;;;;;;;17.65;5.80;;;;;;;;;;5029294;28;20014;-72
2023/09/27 14:10:50;;;;;;;31.13;6.32;;;;;;;;;;5011857;28;20436;-71
2023/09/27 14:13:16;;;;;;;18.73;5.27;;;;;;;;;;5028982;28;20013;-71
2023/09/27 14:15:41;;;;;;;13.27;5.13;;;;;;;;;;5029112;28;20324;-70